createdAt,value
2023-06-29T00:00:45.577Z,17.30
2023-06-29T00:03:14.401Z,17.30
2023-06-29T00:05:43.413Z,17.20
2023-06-29T00:08:12.997Z,17.20
2023-06-29T00:10:43.058Z,17.20
2023-06-29T00:13:11.642Z,17.10
2023-06-29T00:15:39.904Z,17.10
2023-06-29T00:18:10.025Z,17.00
2023-06-29T00:20:38.280Z,17.00
2023-06-29T00:23:06.694Z,17.00
2023-06-29T00:25:36.355Z,17.00
2023-06-29T00:28:06.952Z,17.00
2023-06-29T00:30:36.153Z,17.00
2023-06-29T00:33:04.785Z,17.00
2023-06-29T00:35:34.552Z,17.00
2023-06-29T00:38:03.170Z,16.90
2023-06-29T00:40:35.114Z,16.90
2023-06-29T00:43:03.618Z,16.90
2023-06-29T00:45:34.884Z,16.90
2023-06-29T00:48:06.912Z,16.80
2023-06-29T00:50:37.324Z,16.80
2023-06-29T00:53:05.911Z,16.80
2023-06-29T00:55:35.249Z,16.70
2023-06-29T00:58:03.945Z,16.70
2023-06-29T01:00:34.314Z,16.60
2023-06-29T01:03:03.388Z,16.60
2023-06-29T01:05:35.617Z,16.60
2023-06-29T01:08:09.964Z,16.60
2023-06-29T01:10:41.145Z,16.60
2023-06-29T01:13:10.682Z,16.60
2023-06-29T01:15:42.429Z,16.60
2023-06-29T01:18:13.957Z,16.70
2023-06-29T01:20:43.232Z,16.60
2023-06-29T01:23:13.458Z,16.50
2023-06-29T01:25:45.025Z,16.50
2023-06-29T01:28:13.618Z,16.40
2023-06-29T01:30:50.067Z,16.40
2023-06-29T01:33:22.289Z,16.40
2023-06-29T01:35:53.674Z,16.30
2023-06-29T01:38:28.936Z,16.30
2023-06-29T01:41:00.744Z,16.20
2023-06-29T01:43:33.601Z,16.20
2023-06-29T01:46:02.740Z,16.20
2023-06-29T01:48:33.797Z,16.20
2023-06-29T01:51:02.282Z,16.20
2023-06-29T01:53:32.982Z,16.20
2023-06-29T01:56:07.107Z,16.20
2023-06-29T01:58:35.609Z,16.10
2023-06-29T02:01:07.010Z,16.10
2023-06-29T02:03:35.739Z,16.10
2023-06-29T02:06:05.920Z,16.10
2023-06-29T02:08:35.814Z,16.10
2023-06-29T02:11:05.413Z,16.10
2023-06-29T02:13:36.770Z,16.10
2023-06-29T02:16:05.782Z,16.10
2023-06-29T02:18:34.336Z,16.20
2023-06-29T02:21:02.908Z,16.20
2023-06-29T02:23:31.566Z,16.20
2023-06-29T02:26:00.636Z,16.20
2023-06-29T02:28:28.928Z,16.30
2023-06-29T02:30:59.128Z,16.30
2023-06-29T02:33:27.828Z,16.20
2023-06-29T02:35:56.407Z,16.20
2023-06-29T02:38:28.246Z,16.20
2023-06-29T02:40:57.354Z,16.10
2023-06-29T02:43:25.826Z,16.10
2023-06-29T02:45:55.767Z,16.10
2023-06-29T02:48:28.288Z,16.10
2023-06-29T02:50:57.603Z,16.00
2023-06-29T02:53:26.269Z,16.00
2023-06-29T02:55:54.694Z,16.00
2023-06-29T02:58:23.078Z,15.90
2023-06-29T03:00:53.734Z,15.90
2023-06-29T03:03:22.418Z,15.80
2023-06-29T03:05:52.327Z,15.70
2023-06-29T03:08:21.067Z,15.60
2023-06-29T03:10:49.606Z,15.50
2023-06-29T03:13:18.034Z,15.50
2023-06-29T03:15:46.757Z,15.50
2023-06-29T03:18:17.113Z,15.50
2023-06-29T03:20:46.302Z,15.60
2023-06-29T03:23:16.112Z,15.60
2023-06-29T03:25:44.953Z,15.60
2023-06-29T03:28:14.205Z,15.50
2023-06-29T03:30:42.516Z,15.50
2023-06-29T03:33:10.688Z,15.50
2023-06-29T03:35:39.140Z,15.50
2023-06-29T03:38:09.639Z,15.60
2023-06-29T03:40:39.638Z,15.60
2023-06-29T03:43:08.729Z,15.60
2023-06-29T03:45:37.431Z,15.60
2023-06-29T03:48:06.324Z,15.60
2023-06-29T03:50:34.700Z,15.60
2023-06-29T03:53:03.202Z,15.60
2023-06-29T03:55:31.819Z,15.70
2023-06-29T03:58:01.694Z,15.70
2023-06-29T04:00:30.047Z,15.80
2023-06-29T04:02:58.862Z,15.90
2023-06-29T04:05:28.992Z,16.00
2023-06-29T04:07:57.516Z,16.20
2023-06-29T04:10:25.814Z,16.40
2023-06-29T04:12:55.722Z,16.80
2023-06-29T04:15:26.269Z,17.30
2023-06-29T04:17:54.987Z,17.80
2023-06-29T04:20:23.615Z,18.40
2023-06-29T04:22:52.073Z,18.90
2023-06-29T04:25:20.882Z,19.50
2023-06-29T04:27:49.236Z,19.80
2023-06-29T04:30:20.907Z,20.10
2023-06-29T04:32:51.040Z,20.40
2023-06-29T04:35:19.777Z,20.70
2023-06-29T04:37:47.975Z,21.10
2023-06-29T04:40:16.601Z,21.60
2023-06-29T04:42:46.865Z,22.00
2023-06-29T04:45:19.403Z,22.40
2023-06-29T04:47:50.751Z,22.70
2023-06-29T04:50:27.023Z,23.20
2023-06-29T04:52:55.991Z,23.60
2023-06-29T04:55:24.990Z,24.10
2023-06-29T04:57:53.985Z,24.70
2023-06-29T05:00:22.283Z,25.10
2023-06-29T05:02:50.806Z,25.40
2023-06-29T05:05:20.858Z,25.60
2023-06-29T05:07:49.534Z,25.70
2023-06-29T05:10:18.054Z,25.60
2023-06-29T05:12:49.562Z,25.70
2023-06-29T05:15:18.037Z,25.80
2023-06-29T05:17:46.501Z,26.00
2023-06-29T05:20:21.404Z,26.00
2023-06-29T05:22:51.358Z,26.20
2023-06-29T05:25:19.654Z,26.50
2023-06-29T05:27:47.924Z,26.80
2023-06-29T05:30:17.831Z,27.30
2023-06-29T05:32:47.938Z,27.30
2023-06-29T05:35:16.317Z,27.70
2023-06-29T05:37:45.026Z,28.00
2023-06-29T05:40:17.290Z,28.50
2023-06-29T05:42:45.643Z,28.40
2023-06-29T05:45:19.741Z,28.50
2023-06-29T05:47:48.721Z,29.10
2023-06-29T05:50:17.514Z,29.20
2023-06-29T05:52:47.565Z,29.30
2023-06-29T05:55:20.258Z,29.90
2023-06-29T05:57:49.988Z,30.70
2023-06-29T06:00:20.448Z,31.20
2023-06-29T06:02:49.586Z,32.20
2023-06-29T06:05:18.378Z,32.90
2023-06-29T06:07:46.891Z,33.10
2023-06-29T06:10:15.477Z,33.60
2023-06-29T06:12:45.742Z,34.20
2023-06-29T06:15:16.583Z,33.90
2023-06-29T06:17:45.121Z,34.20
2023-06-29T06:20:14.328Z,34.10
2023-06-29T06:22:43.597Z,33.00
2023-06-29T06:25:16.248Z,31.50
2023-06-29T06:27:46.556Z,31.10
2023-06-29T06:30:15.702Z,31.20
2023-06-29T06:32:43.968Z,31.60
2023-06-29T06:35:13.696Z,32.30
2023-06-29T06:37:42.831Z,32.50
2023-06-29T06:40:12.085Z,32.40
2023-06-29T06:42:41.718Z,32.80
2023-06-29T06:45:13.191Z,33.20
2023-06-29T06:47:42.066Z,33.60
2023-06-29T06:50:11.277Z,34.10
2023-06-29T06:52:39.700Z,34.60
2023-06-29T06:55:09.578Z,34.50
2023-06-29T06:57:37.990Z,34.60
2023-06-29T07:00:11.985Z,34.50
2023-06-29T07:02:42.177Z,34.50
2023-06-29T07:05:11.511Z,34.20
2023-06-29T07:07:40.065Z,34.50
2023-06-29T07:10:09.000Z,35.00
2023-06-29T07:12:38.146Z,36.00
2023-06-29T07:15:07.971Z,36.70
2023-06-29T07:17:36.594Z,36.90
2023-06-29T07:25:13.318Z,36.50
2023-06-29T07:27:43.709Z,36.90
2023-06-29T07:30:13.024Z,37.00
2023-06-29T07:32:42.426Z,37.50
2023-06-29T07:35:12.882Z,38.80
2023-06-29T07:37:41.436Z,39.90
2023-06-29T07:40:10.939Z,40.60
2023-06-29T07:42:41.378Z,41.10
2023-06-29T07:45:10.595Z,41.10
2023-06-29T07:47:39.499Z,40.80
2023-06-29T07:50:09.119Z,40.90
2023-06-29T07:52:39.101Z,41.10
2023-06-29T07:55:09.590Z,41.60
2023-06-29T08:00:11.830Z,42.30
2023-06-29T08:02:50.717Z,43.10
2023-06-29T08:07:51.997Z,44.40
2023-06-29T08:10:20.706Z,45.00
2023-06-29T08:12:49.293Z,45.40
2023-06-29T08:15:17.971Z,45.40
2023-06-29T08:17:46.555Z,45.00
2023-06-29T08:20:15.116Z,44.70
2023-06-29T08:22:44.293Z,44.00
2023-06-29T08:25:14.217Z,42.70
2023-06-29T08:27:43.260Z,41.90
2023-06-29T08:30:12.890Z,41.20
2023-06-29T08:32:41.313Z,40.90
2023-06-29T08:35:10.651Z,41.00
2023-06-29T08:37:39.738Z,41.40
2023-06-29T08:40:09.671Z,41.60
2023-06-29T08:42:40.265Z,41.80
2023-06-29T08:45:10.315Z,43.20
2023-06-29T08:47:41.274Z,43.80
2023-06-29T08:50:12.146Z,44.20
2023-06-29T08:52:41.396Z,42.90
2023-06-29T08:55:10.546Z,42.40
2023-06-29T08:57:41.357Z,42.50
2023-06-29T09:00:10.926Z,42.60
2023-06-29T09:02:40.109Z,43.10
2023-06-29T09:05:10.002Z,43.40
2023-06-29T09:07:41.823Z,42.60
2023-06-29T09:10:12.739Z,42.20
2023-06-29T09:12:42.754Z,43.40
2023-06-29T09:15:12.586Z,43.70
2023-06-29T09:17:47.268Z,42.60
2023-06-29T09:20:16.758Z,41.60
2023-06-29T09:22:45.315Z,41.60
2023-06-29T09:25:27.625Z,42.60
2023-06-29T09:28:15.274Z,44.00
2023-06-29T09:30:44.724Z,44.00
2023-06-29T09:33:15.355Z,44.80
2023-06-29T09:35:47.706Z,44.70
2023-06-29T09:38:17.785Z,45.40
2023-06-29T09:40:53.780Z,45.90
2023-06-29T09:43:31.400Z,46.70
2023-06-29T09:46:08.928Z,47.20
2023-06-29T09:51:23.125Z,48.00
2023-06-29T09:53:53.593Z,47.10
2023-06-29T09:56:22.827Z,47.60
2023-06-29T09:58:54.345Z,47.00
2023-06-29T10:01:23.662Z,46.70
2023-06-29T10:03:52.064Z,46.00
2023-06-29T10:06:24.310Z,45.80
2023-06-29T10:08:56.927Z,45.70
2023-06-29T10:11:30.120Z,45.90
2023-06-29T10:14:02.981Z,45.00
2023-06-29T10:16:34.865Z,44.20
2023-06-29T10:19:14.759Z,43.50
2023-06-29T10:21:44.290Z,42.30
2023-06-29T10:24:15.904Z,40.90
2023-06-29T10:26:45.280Z,40.00
2023-06-29T10:29:16.572Z,38.60
2023-06-29T10:31:49.649Z,38.50
2023-06-29T10:34:20.734Z,39.20
2023-06-29T10:36:52.127Z,39.80
2023-06-29T10:39:45.213Z,39.90
2023-06-29T10:42:15.775Z,40.40
2023-06-29T10:44:49.560Z,40.60
2023-06-29T10:47:27.457Z,40.90
2023-06-29T10:50:20.280Z,40.90
2023-06-29T10:52:50.914Z,40.00
2023-06-29T10:55:20.709Z,39.30
2023-06-29T10:57:51.270Z,37.70
2023-06-29T11:00:21.915Z,37.00
2023-06-29T11:02:51.114Z,36.00
2023-06-29T11:05:21.038Z,35.30
2023-06-29T11:07:51.971Z,34.90
2023-06-29T11:10:22.809Z,34.80
2023-06-29T11:12:52.472Z,34.90
2023-06-29T11:15:24.196Z,34.70
2023-06-29T11:17:54.025Z,34.90
2023-06-29T11:20:24.638Z,34.80
2023-06-29T11:22:55.951Z,34.70
2023-06-29T11:25:27.115Z,34.60
2023-06-29T11:27:56.451Z,34.20
2023-06-29T11:30:28.120Z,33.60
2023-06-29T11:32:58.073Z,33.40
2023-06-29T11:35:27.340Z,32.80
2023-06-29T11:38:02.010Z,32.60
2023-06-29T11:40:31.412Z,32.50
2023-06-29T11:43:00.243Z,32.30
2023-06-29T11:45:30.610Z,31.80
2023-06-29T11:47:59.383Z,31.40
2023-06-29T11:50:27.898Z,30.80
2023-06-29T11:52:58.826Z,30.30
2023-06-29T11:55:30.102Z,29.90
2023-06-29T11:57:58.552Z,29.80
2023-06-29T12:00:44.015Z,29.60
2023-06-29T12:03:13.453Z,29.30
2023-06-29T12:05:44.113Z,29.20
2023-06-29T12:08:13.452Z,29.00
2023-06-29T12:10:42.654Z,29.00
2023-06-29T12:13:15.574Z,28.80
2023-06-29T12:18:19.029Z,28.30
2023-06-29T12:20:50.982Z,28.20
2023-06-29T12:23:21.914Z,28.20
2023-06-29T12:25:52.424Z,28.30
2023-06-29T12:28:23.425Z,28.40
2023-06-29T12:30:54.730Z,28.50
2023-06-29T12:33:23.497Z,28.40
2023-06-29T12:35:51.977Z,28.30
2023-06-29T12:38:20.697Z,28.40
2023-06-29T12:40:50.077Z,28.50
2023-06-29T12:43:18.761Z,28.60
2023-06-29T12:45:48.005Z,28.60
2023-06-29T12:48:20.596Z,28.30
2023-06-29T12:50:49.202Z,28.00
2023-06-29T12:53:18.181Z,27.70
2023-06-29T12:55:47.022Z,27.80
2023-06-29T12:58:16.630Z,27.70
2023-06-29T13:00:45.238Z,27.90
2023-06-29T13:03:17.167Z,28.20
2023-06-29T13:05:51.161Z,28.70
2023-06-29T13:08:21.510Z,29.20
2023-06-29T13:10:50.356Z,29.70
2023-06-29T13:13:19.808Z,30.10
2023-06-29T13:15:48.324Z,30.60
2023-06-29T13:18:16.512Z,30.80
2023-06-29T13:20:47.580Z,31.10
2023-06-29T13:23:16.141Z,31.20
2023-06-29T13:25:46.118Z,31.30
2023-06-29T13:28:15.304Z,31.40
2023-06-29T13:30:44.343Z,31.70
2023-06-29T13:33:13.587Z,32.30
2023-06-29T13:35:42.357Z,32.70
2023-06-29T13:38:17.362Z,33.30
2023-06-29T13:40:46.218Z,34.30
2023-06-29T13:43:14.852Z,34.60
2023-06-29T13:45:44.594Z,35.10
2023-06-29T13:48:16.368Z,36.20
2023-06-29T13:50:54.833Z,37.70
2023-06-29T13:53:27.951Z,38.30
2023-06-29T13:55:57.107Z,38.40
2023-06-29T13:58:29.299Z,38.20
2023-06-29T14:00:58.781Z,38.10
2023-06-29T14:03:28.601Z,38.30
2023-06-29T14:05:57.360Z,38.60
2023-06-29T14:08:27.598Z,38.80
2023-06-29T14:10:59.307Z,38.90
2023-06-29T14:13:32.232Z,38.30
2023-06-29T14:16:01.413Z,38.00
2023-06-29T14:18:32.451Z,38.10
2023-06-29T14:21:04.895Z,37.80
2023-06-29T14:23:35.290Z,37.60
2023-06-29T14:26:05.404Z,38.70
2023-06-29T14:28:34.123Z,40.10
2023-06-29T14:31:02.543Z,40.80
2023-06-29T14:33:35.056Z,41.20
2023-06-29T14:36:08.900Z,41.20
2023-06-29T14:38:39.281Z,40.60
2023-06-29T14:41:10.338Z,39.90
2023-06-29T14:43:42.398Z,39.70
2023-06-29T14:46:13.323Z,39.80
2023-06-29T14:48:41.981Z,39.50
2023-06-29T14:51:11.893Z,39.70
2023-06-29T14:53:42.145Z,40.00
2023-06-29T14:56:15.930Z,39.90
2023-06-29T14:58:44.816Z,39.90
2023-06-29T15:01:12.880Z,39.90
2023-06-29T15:03:42.099Z,40.50
2023-06-29T15:06:11.057Z,39.90
2023-06-29T15:08:39.637Z,38.60
2023-06-29T15:11:09.863Z,38.00
2023-06-29T15:13:38.374Z,37.80
2023-06-29T15:16:11.160Z,38.20
2023-06-29T15:18:54.462Z,38.60
2023-06-29T15:21:29.289Z,38.80
2023-06-29T15:23:58.040Z,38.60
2023-06-29T15:26:28.283Z,38.40
2023-06-29T15:28:56.788Z,38.20
2023-06-29T15:31:27.231Z,38.20
2023-06-29T15:33:57.279Z,38.10
2023-06-29T15:36:26.618Z,37.90
2023-06-29T15:38:55.546Z,37.30
2023-06-29T15:41:29.120Z,36.80
2023-06-29T15:44:06.592Z,36.60
2023-06-29T15:46:36.090Z,36.10
2023-06-29T15:49:05.650Z,35.40
2023-06-29T15:51:39.348Z,34.30
2023-06-29T15:54:09.282Z,33.90
2023-06-29T15:56:37.904Z,33.60
2023-06-29T15:59:10.384Z,33.40
2023-06-29T16:01:39.624Z,32.90
2023-06-29T16:04:08.700Z,32.80
2023-06-29T16:06:37.523Z,32.70
2023-06-29T16:09:06.748Z,33.30
2023-06-29T16:11:37.266Z,34.00
2023-06-29T16:14:07.688Z,34.70
2023-06-29T16:16:36.749Z,35.10
2023-06-29T16:19:05.552Z,35.30
2023-06-29T16:21:36.054Z,35.30
2023-06-29T16:24:04.546Z,35.50
2023-06-29T16:26:32.985Z,35.50
2023-06-29T16:29:01.405Z,35.20
2023-06-29T16:31:32.261Z,34.90
2023-06-29T16:34:02.181Z,34.60
2023-06-29T16:36:30.362Z,34.50
2023-06-29T16:38:58.807Z,34.30
2023-06-29T16:41:27.269Z,34.10
2023-06-29T16:43:57.019Z,33.90
2023-06-29T16:46:26.062Z,33.60
2023-06-29T16:49:00.566Z,33.60
2023-06-29T16:51:30.046Z,33.50
2023-06-29T16:53:59.168Z,33.40
2023-06-29T16:56:29.823Z,33.50
2023-06-29T16:58:58.858Z,33.60
2023-06-29T17:01:27.674Z,33.50
2023-06-29T17:03:56.406Z,33.60
2023-06-29T17:06:27.019Z,33.50
2023-06-29T17:08:55.346Z,33.40
2023-06-29T17:11:23.487Z,33.30
2023-06-29T17:13:52.325Z,33.20
2023-06-29T17:16:21.474Z,33.10
2023-06-29T17:18:51.928Z,32.90
2023-06-29T17:21:21.166Z,32.70
2023-06-29T17:23:54.497Z,32.60
2023-06-29T17:26:25.929Z,32.40
2023-06-29T17:28:58.593Z,32.30
2023-06-29T17:31:29.515Z,32.40
2023-06-29T17:33:58.432Z,32.40
2023-06-29T17:36:28.629Z,32.20
2023-06-29T17:39:00.505Z,32.10
2023-06-29T17:41:30.115Z,32.00
2023-06-29T17:43:59.188Z,32.00
2023-06-29T17:46:27.906Z,31.70
2023-06-29T17:48:57.465Z,31.40
2023-06-29T17:51:26.148Z,31.20
2023-06-29T17:53:54.674Z,31.00
2023-06-29T17:56:24.408Z,30.70
2023-06-29T17:58:53.313Z,30.50
2023-06-29T18:01:23.931Z,30.30
2023-06-29T18:03:54.564Z,30.10
2023-06-29T18:06:23.899Z,30.00
2023-06-29T18:08:52.596Z,29.80
2023-06-29T18:11:24.279Z,29.60
2023-06-29T18:13:54.647Z,29.40
2023-06-29T18:16:23.575Z,29.10
2023-06-29T18:18:52.542Z,28.90
2023-06-29T18:21:24.990Z,28.70
2023-06-29T18:23:53.251Z,28.50
2023-06-29T18:26:23.751Z,28.30
2023-06-29T18:28:54.162Z,28.10
2023-06-29T18:31:23.299Z,27.90
2023-06-29T18:33:54.849Z,27.80
2023-06-29T18:36:23.905Z,27.60
2023-06-29T18:38:52.985Z,27.50
2023-06-29T18:41:32.674Z,27.50
2023-06-29T18:44:10.331Z,27.40
2023-06-29T18:46:43.805Z,27.30
2023-06-29T18:49:13.664Z,27.20
2023-06-29T18:51:44.810Z,27.10
2023-06-29T18:54:13.298Z,27.00
2023-06-29T18:56:42.045Z,27.00
2023-06-29T18:59:13.808Z,26.90
2023-06-29T19:01:42.327Z,26.80
2023-06-29T19:04:11.643Z,26.80
2023-06-29T19:06:41.961Z,26.70
2023-06-29T19:09:12.398Z,26.60
2023-06-29T19:11:43.498Z,26.50
2023-06-29T19:14:14.104Z,26.40
2023-06-29T19:16:44.583Z,26.30
2023-06-29T19:19:14.394Z,26.30
2023-06-29T19:21:49.319Z,26.20
2023-06-29T19:24:18.992Z,26.10
2023-06-29T19:26:50.870Z,26.00
2023-06-29T19:29:21.262Z,25.80
2023-06-29T19:31:50.183Z,25.60
2023-06-29T19:34:18.957Z,25.50
2023-06-29T19:36:49.513Z,25.30
2023-06-29T19:39:18.205Z,25.20
2023-06-29T19:41:46.908Z,25.10
2023-06-29T19:44:15.870Z,24.90
2023-06-29T19:46:47.721Z,24.70
2023-06-29T19:49:16.479Z,24.60
2023-06-29T19:51:48.358Z,24.40
2023-06-29T19:54:16.874Z,24.30
2023-06-29T19:56:46.546Z,24.20
2023-06-29T19:59:15.267Z,24.10
2023-06-29T20:01:44.518Z,24.00
2023-06-29T20:04:14.921Z,23.70
2023-06-29T20:06:43.644Z,23.50
2023-06-29T20:09:13.470Z,23.30
2023-06-29T20:11:42.461Z,23.10
2023-06-29T20:14:10.915Z,22.90
2023-06-29T20:16:40.126Z,22.70
2023-06-29T20:19:09.346Z,22.50
2023-06-29T20:21:40.469Z,22.40
2023-06-29T20:24:08.941Z,22.30
2023-06-29T20:26:37.891Z,22.30
2023-06-29T20:29:06.448Z,22.30
2023-06-29T20:31:35.163Z,22.10
2023-06-29T20:34:03.870Z,22.10
2023-06-29T20:36:33.220Z,22.00
2023-06-29T20:39:06.083Z,21.90
2023-06-29T20:41:36.242Z,21.80
2023-06-29T20:44:15.260Z,21.80
2023-06-29T20:46:44.413Z,21.80
2023-06-29T20:49:15.162Z,21.70
2023-06-29T20:51:43.860Z,21.70
2023-06-29T20:54:14.824Z,21.50
2023-06-29T20:56:45.207Z,21.40
2023-06-29T20:59:13.756Z,21.40
2023-06-29T21:01:46.242Z,21.40
2023-06-29T21:04:15.118Z,21.40
2023-06-29T21:06:44.062Z,21.50
2023-06-29T21:09:14.272Z,21.40
2023-06-29T21:11:43.958Z,21.40
2023-06-29T21:14:13.063Z,21.40
2023-06-29T21:16:42.188Z,21.20
2023-06-29T21:19:11.400Z,21.00
2023-06-29T21:21:41.428Z,20.90
2023-06-29T21:24:11.255Z,20.70
2023-06-29T21:26:41.358Z,20.70
2023-06-29T21:29:23.077Z,20.70
2023-06-29T21:32:03.992Z,20.70
2023-06-29T21:34:34.929Z,20.60
2023-06-29T21:37:04.833Z,20.60
2023-06-29T21:39:33.529Z,20.50
2023-06-29T21:42:04.796Z,20.50
2023-06-29T21:44:33.899Z,20.40
2023-06-29T21:47:02.815Z,20.40
2023-06-29T21:49:32.666Z,20.30
2023-06-29T21:52:01.750Z,20.30
2023-06-29T21:54:30.913Z,20.40
2023-06-29T21:56:59.508Z,20.40
2023-06-29T21:59:29.828Z,20.40
2023-06-29T22:01:59.009Z,20.30
2023-06-29T22:04:28.037Z,20.20
2023-06-29T22:07:06.616Z,20.10
2023-06-29T22:09:44.474Z,20.10
2023-06-29T22:12:13.935Z,20.00
2023-06-29T22:14:49.171Z,19.90
2023-06-29T22:17:18.462Z,19.90
2023-06-29T22:20:11.742Z,19.80
2023-06-29T22:22:40.605Z,19.80
2023-06-29T22:25:09.948Z,19.70
2023-06-29T22:27:38.709Z,19.70
2023-06-29T22:30:10.920Z,19.70
2023-06-29T22:32:41.728Z,19.70
2023-06-29T22:35:12.788Z,19.60
2023-06-29T22:37:41.418Z,19.60
2023-06-29T22:40:11.589Z,19.70
2023-06-29T22:42:43.614Z,19.70
2023-06-29T22:45:14.986Z,19.70
2023-06-29T22:47:45.094Z,19.70
2023-06-29T22:50:13.851Z,19.70
2023-06-29T22:52:47.030Z,19.70
2023-06-29T22:55:15.915Z,19.60
2023-06-29T22:57:44.788Z,19.60
2023-06-29T23:00:16.556Z,19.60
2023-06-29T23:02:47.806Z,19.60
2023-06-29T23:05:16.516Z,19.60
2023-06-29T23:07:45.848Z,19.60
2023-06-29T23:10:15.410Z,19.60
2023-06-29T23:12:46.936Z,19.60
2023-06-29T23:15:21.225Z,19.60
2023-06-29T23:17:49.300Z,19.60
2023-06-29T23:20:17.393Z,19.60
2023-06-29T23:22:47.211Z,19.60
2023-06-29T23:25:16.350Z,19.50
2023-06-29T23:27:44.856Z,19.40
2023-06-29T23:30:16.796Z,19.20
2023-06-29T23:32:51.323Z,19.10
2023-06-29T23:35:21.756Z,19.00
2023-06-29T23:37:50.743Z,18.90
2023-06-29T23:40:19.832Z,18.90
2023-06-29T23:42:48.760Z,18.90
2023-06-29T23:45:17.898Z,18.90
2023-06-29T23:47:48.458Z,18.90
2023-06-29T23:50:19.643Z,18.90
2023-06-29T23:52:48.791Z,19.00
2023-06-29T23:55:17.469Z,19.10
2023-06-29T23:57:46.347Z,19.20
